createdAt,value
2023-04-17T00:00:37.617Z,7.10
2023-04-17T00:03:04.869Z,7.10
2023-04-17T00:05:33.820Z,7.10
2023-04-17T00:08:00.747Z,7.00
2023-04-17T00:10:27.809Z,7.00
2023-04-17T00:12:54.763Z,7.00
2023-04-17T00:15:21.853Z,7.00
2023-04-17T00:17:48.865Z,7.00
2023-04-17T00:20:15.872Z,7.00
2023-04-17T00:22:42.810Z,7.00
2023-04-17T00:25:13.045Z,7.00
2023-04-17T00:27:40.150Z,7.00
2023-04-17T00:30:08.067Z,7.10
2023-04-17T00:32:35.946Z,7.10
2023-04-17T00:35:02.885Z,7.10
2023-04-17T00:37:29.814Z,7.10
2023-04-17T00:39:56.698Z,7.10
2023-04-17T00:42:23.648Z,7.00
2023-04-17T00:44:50.624Z,7.00
2023-04-17T00:47:18.244Z,7.00
2023-04-17T00:49:45.618Z,7.00
2023-04-17T00:52:14.327Z,7.00
2023-04-17T00:54:41.617Z,7.00
2023-04-17T00:57:08.881Z,7.00
2023-04-17T00:59:38.080Z,7.00
2023-04-17T01:02:05.138Z,7.10
2023-04-17T01:04:32.247Z,7.00
2023-04-17T01:07:00.331Z,7.10
2023-04-17T01:09:27.826Z,7.00
2023-04-17T01:11:54.994Z,7.00
2023-04-17T01:14:21.907Z,7.00
2023-04-17T01:16:48.956Z,7.00
2023-04-17T01:19:17.008Z,7.00
2023-04-17T01:21:43.920Z,7.00
2023-04-17T01:24:10.954Z,7.00
2023-04-17T01:26:38.698Z,7.00
2023-04-17T01:29:05.713Z,7.00
2023-04-17T01:31:32.656Z,7.00
2023-04-17T01:34:01.118Z,7.00
2023-04-17T01:36:28.669Z,7.00
2023-04-17T01:38:55.911Z,7.00
2023-04-17T01:41:22.876Z,6.90
2023-04-17T01:43:50.410Z,6.90
2023-04-17T01:46:17.382Z,7.00
2023-04-17T01:48:44.432Z,7.00
2023-04-17T01:51:11.375Z,7.00
2023-04-17T01:53:39.792Z,7.00
2023-04-17T01:56:07.352Z,7.00
2023-04-17T01:58:34.351Z,7.00
2023-04-17T02:01:01.284Z,7.00
2023-04-17T02:03:29.102Z,7.00
2023-04-17T02:05:56.219Z,7.00
2023-04-17T02:08:23.328Z,7.00
2023-04-17T02:10:50.536Z,7.00
2023-04-17T02:13:17.494Z,7.00
2023-04-17T02:15:44.735Z,7.00
2023-04-17T02:18:11.975Z,6.90
2023-04-17T02:20:39.426Z,6.90
2023-04-17T02:23:07.204Z,6.80
2023-04-17T02:25:34.301Z,6.80
2023-04-17T02:28:01.284Z,6.80
2023-04-17T02:30:28.729Z,6.80
2023-04-17T02:32:56.351Z,6.80
2023-04-17T02:35:28.385Z,6.90
2023-04-17T02:37:55.326Z,6.90
2023-04-17T02:40:29.341Z,6.90
2023-04-17T02:42:56.896Z,6.90
2023-04-17T02:45:23.933Z,6.90
2023-04-17T02:47:51.139Z,6.90
2023-04-17T02:50:18.236Z,6.90
2023-04-17T02:52:45.403Z,6.80
2023-04-17T02:55:12.470Z,6.70
2023-04-17T02:57:39.494Z,6.70
2023-04-17T03:00:13.697Z,6.70
2023-04-17T03:02:41.489Z,6.70
2023-04-17T03:05:09.375Z,6.70
2023-04-17T03:07:36.567Z,6.70
2023-04-17T03:10:03.701Z,6.70
2023-04-17T03:12:30.970Z,6.70
2023-04-17T03:14:57.979Z,6.70
2023-04-17T03:17:25.035Z,6.70
2023-04-17T03:19:52.123Z,6.60
2023-04-17T03:22:19.167Z,6.60
2023-04-17T03:24:46.296Z,6.60
2023-04-17T03:27:13.309Z,6.60
2023-04-17T03:29:40.411Z,6.60
2023-04-17T03:32:07.558Z,6.70
2023-04-17T03:34:34.780Z,6.60
2023-04-17T03:37:01.784Z,6.60
2023-04-17T03:39:28.789Z,6.60
2023-04-17T03:41:56.530Z,6.60
2023-04-17T03:44:23.578Z,6.50
2023-04-17T03:46:50.941Z,6.50
2023-04-17T03:49:17.956Z,6.40
2023-04-17T03:51:45.370Z,6.30
2023-04-17T03:54:12.314Z,6.20
2023-04-17T03:56:39.332Z,6.20
2023-04-17T03:59:06.403Z,6.10
2023-04-17T04:01:33.375Z,6.10
2023-04-17T04:04:00.599Z,6.10
2023-04-17T04:06:30.016Z,6.10
2023-04-17T04:08:57.360Z,6.20
2023-04-17T04:11:24.314Z,6.20
2023-04-17T04:13:51.245Z,6.40
2023-04-17T05:18:48.267Z,7.40
2023-04-17T05:21:15.349Z,7.50
2023-04-17T05:23:42.375Z,7.50
2023-04-17T05:26:09.290Z,7.60
2023-04-17T05:28:36.250Z,7.70
2023-04-17T05:31:03.265Z,7.70
2023-04-17T05:33:30.359Z,7.80
2023-04-17T05:35:57.395Z,7.90
2023-04-17T05:38:24.359Z,7.90
2023-04-17T05:40:53.316Z,8.00
2023-04-17T05:43:20.246Z,8.20
2023-04-17T05:45:47.826Z,8.20
2023-04-17T05:48:14.845Z,8.20
2023-04-17T05:50:41.876Z,8.10
2023-04-17T05:53:08.852Z,8.10
2023-04-17T05:55:35.972Z,8.10
2023-04-17T05:58:10.524Z,8.20
2023-04-17T06:00:49.434Z,8.20
2023-04-17T06:03:18.250Z,8.20
2023-04-17T06:05:47.272Z,8.30
2023-04-17T06:08:14.352Z,8.30
2023-04-17T06:10:41.463Z,8.30
2023-04-17T06:13:08.381Z,8.40
2023-04-17T06:15:35.327Z,8.50
2023-04-17T06:18:02.363Z,8.60
2023-04-17T06:20:29.422Z,8.70
2023-04-17T06:22:57.238Z,8.90
2023-04-17T06:25:24.322Z,9.10
2023-04-17T06:27:51.379Z,9.20
2023-04-17T06:30:18.521Z,9.20
2023-04-17T06:32:45.520Z,9.20
2023-04-17T06:35:12.608Z,9.20
2023-04-17T06:37:39.546Z,9.10
2023-04-17T06:40:07.296Z,9.10
2023-04-17T06:42:35.529Z,9.10
2023-04-17T06:45:02.525Z,9.00
2023-04-17T06:47:31.851Z,9.00
2023-04-17T06:49:59.986Z,9.00
2023-04-17T06:52:27.051Z,9.00
2023-04-17T06:54:58.897Z,9.10
2023-04-17T06:57:25.851Z,9.10
2023-04-17T06:59:52.824Z,9.20
2023-04-17T07:02:20.044Z,9.20
2023-04-17T07:04:47.161Z,9.30
2023-04-17T07:07:14.136Z,9.40
2023-04-17T07:09:43.046Z,9.50
2023-04-17T07:12:10.040Z,9.70
2023-04-17T07:14:38.346Z,9.90
2023-04-17T07:17:05.383Z,10.00
2023-04-17T07:19:33.745Z,10.20
2023-04-17T07:22:00.880Z,10.20
2023-04-17T07:24:27.927Z,10.20
2023-04-17T07:26:55.366Z,10.30
2023-04-17T07:29:22.523Z,10.50
2023-04-17T07:31:49.778Z,10.50
2023-04-17T07:34:16.879Z,10.60
2023-04-17T07:36:44.830Z,10.60
2023-04-17T07:39:12.032Z,10.60
2023-04-17T07:41:39.445Z,10.70
2023-04-17T07:44:06.799Z,10.70
2023-04-17T07:46:34.045Z,10.70
2023-04-17T07:49:01.088Z,10.70
2023-04-17T07:51:29.302Z,10.70
2023-04-17T07:53:56.230Z,10.60
2023-04-17T07:56:23.177Z,10.60
2023-04-17T10:01:01.392Z,12.50
2023-04-17T10:03:28.986Z,12.60
2023-04-17T10:05:56.709Z,12.60
2023-04-17T10:08:23.814Z,12.70
2023-04-17T10:10:52.479Z,12.80
2023-04-17T10:13:21.528Z,12.80
2023-04-17T10:15:50.164Z,12.80
2023-04-17T10:18:24.990Z,12.80
2023-04-17T10:20:54.267Z,12.80
2023-04-17T10:23:29.056Z,12.90
2023-04-17T10:26:27.316Z,13.00
2023-04-17T10:28:55.493Z,13.20
2023-04-17T10:31:26.011Z,13.20
2023-04-17T10:33:54.616Z,13.30
2023-04-17T10:36:39.745Z,13.20
2023-04-17T10:39:18.127Z,13.30
2023-04-17T10:42:06.607Z,13.20
2023-04-17T10:44:40.011Z,13.00
2023-04-17T10:49:56.105Z,13.10
2023-04-17T10:52:40.111Z,13.00
2023-04-17T10:55:16.109Z,12.90
2023-04-17T10:57:51.858Z,13.00
2023-04-17T11:00:19.795Z,12.90
2023-04-17T11:02:48.339Z,12.90
2023-04-17T11:05:15.960Z,12.90
2023-04-17T11:07:44.446Z,12.90
2023-04-17T11:10:12.548Z,13.10
2023-04-17T11:12:39.554Z,13.20
2023-04-17T11:15:07.187Z,13.10
2023-04-17T11:17:34.214Z,13.00
2023-04-17T11:20:01.555Z,13.00
2023-04-17T11:22:33.928Z,13.00
2023-04-17T11:25:00.897Z,13.10
2023-04-17T11:27:28.260Z,13.10
2023-04-17T11:29:55.194Z,13.20
2023-04-17T11:32:22.200Z,13.20
2023-04-17T11:34:49.274Z,13.10
2023-04-17T11:37:16.273Z,13.10
2023-04-17T11:39:43.617Z,13.10
2023-04-17T11:42:10.573Z,13.10
2023-04-17T11:44:42.691Z,13.10
2023-04-17T11:47:10.992Z,12.90
2023-04-17T11:49:39.136Z,12.90
2023-04-17T11:52:06.417Z,13.00
2023-04-17T11:54:37.806Z,13.10
2023-04-17T11:57:14.364Z,13.20
2023-04-17T11:59:43.002Z,13.40
2023-04-17T12:02:10.518Z,13.50
2023-04-17T12:04:39.714Z,13.60
2023-04-17T12:07:08.619Z,13.70
2023-04-17T12:09:36.563Z,13.70
2023-04-17T12:12:07.702Z,13.70
2023-04-17T12:14:34.980Z,13.70
2023-04-17T12:17:01.922Z,13.50
2023-04-17T12:19:29.948Z,13.50
2023-04-17T12:21:57.485Z,13.50
2023-04-17T12:24:25.360Z,13.50
2023-04-17T12:26:53.287Z,13.50
2023-04-17T12:29:29.444Z,13.50
2023-04-17T12:32:04.073Z,13.60
2023-04-17T12:34:31.279Z,13.60
2023-04-17T12:36:58.231Z,13.70
2023-04-17T12:39:25.181Z,13.80
2023-04-17T12:41:52.069Z,13.90
2023-04-17T12:44:18.986Z,13.80
2023-04-17T12:46:46.886Z,13.60
2023-04-17T12:49:14.063Z,13.50
2023-04-17T12:51:41.242Z,13.50
2023-04-17T12:54:08.370Z,13.50
2023-04-17T12:56:35.376Z,13.50
2023-04-17T12:59:03.168Z,13.50
2023-04-17T13:01:30.753Z,13.50
2023-04-17T13:03:57.970Z,13.40
2023-04-17T13:06:25.773Z,13.40
2023-04-17T13:08:52.861Z,13.30
2023-04-17T13:11:19.894Z,13.40
2023-04-17T13:13:47.342Z,13.50
2023-04-17T13:16:18.494Z,13.50
2023-04-17T13:18:46.007Z,13.60
2023-04-17T13:21:12.927Z,13.70
2023-04-17T13:23:39.846Z,13.80
2023-04-17T13:26:06.812Z,13.80
2023-04-17T13:28:36.151Z,13.90
2023-04-17T13:31:03.121Z,13.90
2023-04-17T13:33:30.083Z,13.90
2023-04-17T13:35:57.008Z,13.90
2023-04-17T13:38:23.923Z,13.90
2023-04-17T13:40:50.830Z,13.80
2023-04-17T13:43:17.964Z,13.90
2023-04-17T13:45:44.918Z,13.80
2023-04-17T13:48:11.919Z,13.80
2023-04-17T13:50:39.010Z,13.80
2023-04-17T13:53:06.075Z,13.70
2023-04-17T13:55:33.036Z,13.50
2023-04-17T13:58:01.154Z,13.40
2023-04-17T14:00:28.087Z,13.40
2023-04-17T14:02:55.214Z,13.40
2023-04-17T14:05:22.355Z,13.40
2023-04-17T14:07:49.281Z,13.50
2023-04-17T14:10:16.272Z,13.50
2023-04-17T14:12:43.990Z,13.60
2023-04-17T14:15:11.257Z,13.70
2023-04-17T14:17:42.884Z,13.70
2023-04-17T14:20:11.096Z,13.70
2023-04-17T14:22:38.078Z,13.70
2023-04-17T14:25:06.097Z,13.70
2023-04-17T14:27:34.485Z,13.70
2023-04-17T14:30:01.747Z,13.60
2023-04-17T14:32:28.829Z,13.60
2023-04-17T14:34:55.790Z,13.50
2023-04-17T14:37:22.887Z,13.40
2023-04-17T14:39:49.810Z,13.40
2023-04-17T14:42:16.733Z,13.30
2023-04-17T14:44:44.188Z,13.30
2023-04-17T14:47:13.138Z,13.30
2023-04-17T14:49:40.272Z,13.30
2023-04-17T14:52:07.236Z,13.30
2023-04-17T14:54:34.361Z,13.30
2023-04-17T14:57:01.682Z,13.30
2023-04-17T14:59:28.846Z,13.20
2023-04-17T15:01:56.120Z,13.20
2023-04-17T15:04:23.315Z,13.20
2023-04-17T15:06:50.469Z,13.20
2023-04-17T15:09:17.406Z,13.20
2023-04-17T15:11:44.348Z,13.10
2023-04-17T15:14:11.293Z,13.00
2023-04-17T15:16:38.263Z,12.90
2023-04-17T15:19:05.230Z,12.90
2023-04-17T15:21:32.199Z,13.00
2023-04-17T15:23:59.107Z,13.00
2023-04-17T15:26:27.384Z,13.00
2023-04-17T15:31:28.806Z,13.20
2023-04-17T15:33:55.743Z,13.30
2023-04-17T15:36:22.850Z,13.50
2023-04-17T15:38:49.753Z,13.60
2023-04-17T15:41:16.758Z,13.70
2023-04-17T15:43:43.772Z,13.70
2023-04-17T15:46:10.940Z,13.60
2023-04-17T15:48:37.908Z,13.50
2023-04-17T15:51:05.114Z,13.40
2023-04-17T15:53:32.192Z,13.30
2023-04-17T15:55:59.132Z,13.20
2023-04-17T15:58:26.096Z,13.10
2023-04-17T16:00:53.023Z,13.10
2023-04-17T16:03:20.120Z,13.00
2023-04-17T16:05:47.246Z,13.00
2023-04-17T16:08:14.696Z,12.80
2023-04-17T16:10:42.264Z,12.70
2023-04-17T16:13:09.278Z,12.50
2023-04-17T16:15:36.298Z,12.30
2023-04-17T16:18:04.564Z,12.10
2023-04-17T16:20:31.970Z,12.00
2023-04-17T16:22:58.920Z,11.90
2023-04-17T16:25:26.062Z,11.80
2023-04-17T16:27:52.983Z,11.70
2023-04-17T16:30:19.984Z,11.70
2023-04-17T16:32:48.813Z,11.60
2023-04-17T16:35:16.009Z,11.60
2023-04-17T16:37:42.924Z,11.60
2023-04-17T16:40:11.546Z,11.60
2023-04-17T16:42:38.610Z,11.50
2023-04-17T16:45:06.575Z,11.40
2023-04-17T16:47:33.648Z,11.40
2023-04-17T16:50:00.691Z,11.50
2023-04-17T16:52:27.615Z,11.40
2023-04-17T16:54:54.611Z,11.40
2023-04-17T16:57:21.665Z,11.30
2023-04-17T16:59:48.645Z,11.20
2023-04-17T17:02:15.906Z,11.20
2023-04-17T17:04:45.079Z,11.20
2023-04-17T17:07:12.215Z,11.20
2023-04-17T17:09:39.139Z,11.10
2023-04-17T17:12:06.673Z,11.10
2023-04-17T17:14:33.584Z,11.00
2023-04-17T17:17:00.498Z,10.90
2023-04-17T17:19:27.497Z,10.90
2023-04-17T17:21:55.418Z,10.70
2023-04-17T17:24:22.439Z,10.70
2023-04-17T17:26:49.335Z,10.60
2023-04-17T17:29:16.359Z,10.60
2023-04-17T17:31:43.767Z,10.50
2023-04-17T17:34:25.221Z,10.40
2023-04-17T17:36:53.386Z,10.30
2023-04-17T17:39:22.163Z,10.30
2023-04-17T17:41:49.480Z,10.20
2023-04-17T17:44:16.542Z,10.20
2023-04-17T17:46:43.521Z,10.20
2023-04-17T17:49:10.555Z,10.10
2023-04-17T17:51:37.506Z,10.10
2023-04-17T17:54:11.002Z,10.10
2023-04-17T17:56:38.177Z,10.00
2023-04-17T17:59:05.105Z,10.00
2023-04-17T18:01:32.074Z,10.00
2023-04-17T18:03:59.157Z,10.00
2023-04-17T18:06:26.816Z,10.00
2023-04-17T18:08:54.110Z,10.00
2023-04-17T18:11:21.358Z,10.00
2023-04-17T18:13:48.285Z,9.90
2023-04-17T18:16:15.313Z,9.90
2023-04-17T18:18:42.284Z,9.90
2023-04-17T18:21:09.727Z,9.90
2023-04-17T18:23:36.749Z,9.90
2023-04-17T18:26:04.099Z,10.00
2023-04-17T18:28:31.128Z,10.00
2023-04-17T18:30:58.170Z,10.00
2023-04-17T18:33:25.220Z,9.90
2023-04-17T18:35:52.320Z,9.90
2023-04-17T18:38:19.273Z,10.00
2023-04-17T18:40:46.336Z,10.00
2023-04-17T18:43:16.490Z,9.90
2023-04-17T18:45:43.431Z,9.90
2023-04-17T18:48:10.463Z,9.90
2023-04-17T18:50:38.777Z,9.90
2023-04-17T18:53:05.714Z,9.90
2023-04-17T18:55:33.199Z,9.90
2023-04-17T18:58:00.275Z,9.90
2023-04-17T19:00:27.265Z,9.90
2023-04-17T19:02:54.301Z,9.90
2023-04-17T19:05:21.718Z,9.90
2023-04-17T19:07:49.117Z,9.90
2023-04-17T19:10:16.144Z,9.90
2023-04-17T19:12:44.101Z,9.90
2023-04-17T19:15:11.703Z,9.90
2023-04-17T19:17:39.050Z,9.90
2023-04-17T19:20:06.822Z,9.90
2023-04-17T19:22:33.765Z,9.90
2023-04-17T19:25:00.745Z,9.90
2023-04-17T19:27:27.700Z,9.80
2023-04-17T19:29:54.664Z,9.80
2023-04-17T19:32:21.687Z,9.90
2023-04-17T19:34:48.726Z,9.90
2023-04-17T19:37:15.662Z,9.90
2023-04-17T19:39:42.650Z,9.80
2023-04-17T19:42:09.620Z,9.80
2023-04-17T19:44:36.575Z,9.80
2023-04-17T19:47:04.589Z,9.80
2023-04-17T19:49:31.682Z,9.80
2023-04-17T19:52:00.976Z,9.80
2023-04-17T19:54:28.111Z,9.70
2023-04-17T19:56:55.107Z,9.80
2023-04-17T19:59:22.114Z,9.70
2023-04-17T20:01:50.685Z,9.70
2023-04-17T20:04:17.802Z,9.70
2023-04-17T20:06:44.902Z,9.70
2023-04-17T20:09:14.419Z,9.70
2023-04-17T20:11:41.915Z,9.70
2023-04-17T20:14:08.873Z,9.70
2023-04-17T20:16:35.950Z,9.60
2023-04-17T20:19:03.000Z,9.60
2023-04-17T20:21:30.470Z,9.60
2023-04-17T20:23:59.469Z,9.60
2023-04-17T20:26:26.581Z,9.60
2023-04-17T20:28:54.920Z,9.60
2023-04-17T20:31:22.033Z,9.50
2023-04-17T20:33:49.118Z,9.50
2023-04-17T20:36:16.265Z,9.50
2023-04-17T20:38:43.519Z,9.50
2023-04-17T20:41:10.662Z,9.50
2023-04-17T20:43:37.645Z,9.50
2023-04-17T20:46:06.213Z,9.50
2023-04-17T20:48:33.178Z,9.50
2023-04-17T20:51:05.532Z,9.40
2023-04-17T20:53:33.080Z,9.40
2023-04-17T20:56:00.166Z,9.40
2023-04-17T20:58:27.167Z,9.40
2023-04-17T21:01:01.381Z,9.40
2023-04-17T21:03:32.101Z,9.30
2023-04-17T21:05:59.794Z,9.30
2023-04-17T21:08:26.893Z,9.30
2023-04-17T21:10:53.898Z,9.30
2023-04-17T21:13:21.506Z,9.30
2023-04-17T21:15:48.543Z,9.20
2023-04-17T21:18:15.637Z,9.20
2023-04-17T21:20:42.543Z,9.20
2023-04-17T21:23:10.831Z,9.20
2023-04-17T21:25:37.813Z,9.20
2023-04-17T21:28:04.824Z,9.10
2023-04-17T21:30:31.942Z,9.20
2023-04-17T21:32:58.980Z,9.20
2023-04-17T21:35:26.046Z,9.10
2023-04-17T21:37:52.994Z,9.10
2023-04-17T21:40:20.031Z,9.00
2023-04-17T21:42:46.981Z,9.00
2023-04-17T21:45:14.610Z,9.00
2023-04-17T21:47:41.587Z,9.00
2023-04-17T21:50:09.635Z,8.90
2023-04-17T21:52:36.853Z,8.90
2023-04-17T21:55:05.761Z,8.90
2023-04-17T21:57:32.701Z,8.90
2023-04-17T22:00:00.376Z,8.80
2023-04-17T22:02:27.536Z,8.90
2023-04-17T22:04:54.611Z,8.90
2023-04-17T22:07:22.617Z,8.80
2023-04-17T22:09:49.538Z,8.80
2023-04-17T22:12:23.466Z,8.80
2023-04-17T22:14:50.434Z,8.80
2023-04-17T22:17:17.428Z,8.80
2023-04-17T22:19:44.495Z,8.80
2023-04-17T22:22:11.475Z,8.80
2023-04-17T22:24:38.472Z,8.70
2023-04-17T22:27:05.556Z,8.80
2023-04-17T22:29:32.497Z,8.80
2023-04-17T22:31:59.659Z,8.80
2023-04-17T22:34:26.698Z,8.80
2023-04-17T22:36:53.786Z,8.80
2023-04-17T22:39:21.503Z,8.80
2023-04-17T22:41:48.463Z,8.80
2023-04-17T22:44:15.469Z,8.80
2023-04-17T22:46:42.614Z,8.80
2023-04-17T22:49:09.660Z,8.80
2023-04-17T22:51:36.599Z,8.80
2023-04-17T22:54:14.969Z,8.80
2023-04-17T22:56:46.458Z,8.90
2023-04-17T22:59:13.389Z,8.90
2023-04-17T23:01:40.324Z,8.90
2023-04-17T23:04:07.495Z,8.90
2023-04-17T23:06:34.422Z,8.80
2023-04-17T23:09:01.520Z,8.80
2023-04-17T23:11:31.056Z,8.70
2023-04-17T23:13:58.046Z,8.70
2023-04-17T23:16:25.410Z,8.70
2023-04-17T23:18:52.885Z,8.70
2023-04-17T23:21:19.873Z,8.70
2023-04-17T23:23:48.105Z,8.60
2023-04-17T23:26:15.688Z,8.60
2023-04-17T23:28:42.997Z,8.60
2023-04-17T23:31:10.008Z,8.50
2023-04-17T23:33:37.025Z,8.40
2023-04-17T23:36:04.127Z,8.30
2023-04-17T23:38:31.204Z,8.30
2023-04-17T23:40:58.230Z,8.20
2023-04-17T23:43:25.310Z,8.10
2023-04-17T23:45:52.245Z,8.00
2023-04-17T23:48:19.780Z,7.90
2023-04-17T23:50:46.761Z,7.80
2023-04-17T23:55:53.085Z,7.60
2023-04-17T23:58:20.131Z,7.60
